Time;durP1;ratioP1;P1;durP2;ratioP2;P2;SDS_P1;SDS_P2;PMS_P1;PMS_P2;Temp;Humidity;BMP_temperature;BMP_pressure;BME280_temperature;BME280_humidity;BME280_pressure;Samples;Min_cycle;Max_cycle;Signal;HPM_P1;HPM_P2
2022/07/30 00:00:59;;;;;;;;;;;21.90;46.50;;;;;;492056;240;1235;-50
2022/07/30 00:03:00;;;;;;;;;;;22.00;46.60;;;;;;491620;240;1207;-50
2022/07/30 00:05:01;;;;;;;;;;;21.90;46.50;;;;;;491701;240;1094;-50
2022/07/30 00:07:03;;;;;;;;;;;21.90;46.50;;;;;;491609;240;1183;-50
2022/07/30 00:09:04;;;;;;;;;;;22.00;46.60;;;;;;492043;240;1240;-50
2022/07/30 00:11:05;;;;;;;;;;;21.90;46.50;;;;;;491788;240;1211;-50
2022/07/30 00:13:07;;;;;;;;;;;21.90;46.60;;;;;;492057;240;1213;-50
2022/07/30 00:15:08;;;;;;;;;;;21.90;46.60;;;;;;491820;240;1035;-50
2022/07/30 00:17:09;;;;;;;;;;;21.90;46.60;;;;;;491963;240;1271;-50
2022/07/30 00:19:11;;;;;;;;;;;21.90;46.70;;;;;;492060;240;2113;-50
2022/07/30 00:21:12;;;;;;;;;;;22.00;46.70;;;;;;491643;240;1185;-50
2022/07/30 00:23:13;;;;;;;;;;;21.90;46.70;;;;;;492014;240;1451;-50
2022/07/30 00:25:15;;;;;;;;;;;21.90;46.70;;;;;;491902;240;1280;-50
2022/07/30 00:27:16;;;;;;;;;;;21.90;46.70;;;;;;491861;240;1213;-50
2022/07/30 00:29:17;;;;;;;;;;;21.90;46.60;;;;;;491902;240;1073;-50
2022/07/30 00:31:19;;;;;;;;;;;21.90;46.80;;;;;;491675;240;1212;-50
2022/07/30 00:33:20;;;;;;;;;;;21.90;46.70;;;;;;491647;240;1247;-50
2022/07/30 00:35:21;;;;;;;;;;;21.90;46.80;;;;;;492067;240;1101;-50
2022/07/30 00:37:23;;;;;;;;;;;21.90;46.80;;;;;;491850;240;1310;-50
2022/07/30 00:39:24;;;;;;;;;;;21.90;46.80;;;;;;491844;240;2113;-50
2022/07/30 00:41:25;;;;;;;;;;;21.90;46.80;;;;;;491740;240;1224;-50
2022/07/30 00:43:27;;;;;;;;;;;21.90;46.80;;;;;;491559;240;1237;-50
2022/07/30 00:45:28;;;;;;;;;;;21.90;46.80;;;;;;491619;240;1461;-50
2022/07/30 00:47:29;;;;;;;;;;;21.90;46.80;;;;;;492050;240;1221;-51
2022/07/30 00:49:31;;;;;;;;;;;21.90;46.70;;;;;;491686;240;1168;-50
2022/07/30 00:51:32;;;;;;;;;;;21.90;46.80;;;;;;491896;240;1549;-50
2022/07/30 00:53:33;;;;;;;;;;;21.90;46.80;;;;;;492050;240;1528;-50
2022/07/30 00:55:35;;;;;;;;;;;21.90;46.80;;;;;;491850;240;1264;-50
2022/07/30 00:57:36;;;;;;;;;;;21.90;46.80;;;;;;491579;240;1261;-50
2022/07/30 00:59:37;;;;;;;;;;;21.90;46.80;;;;;;491795;240;2172;-50
2022/07/30 01:01:39;;;;;;;;;;;21.90;46.80;;;;;;492056;240;1217;-50
2022/07/30 01:03:40;;;;;;;;;;;21.90;46.90;;;;;;492105;240;1314;-50
2022/07/30 01:05:41;;;;;;;;;;;21.90;46.90;;;;;;492078;240;1207;-50
2022/07/30 01:07:43;;;;;;;;;;;21.90;47.00;;;;;;491735;240;1264;-50
2022/07/30 01:09:44;;;;;;;;;;;21.90;47.00;;;;;;492069;240;1210;-49
2022/07/30 01:11:45;;;;;;;;;;;21.90;46.90;;;;;;491875;240;1282;-50
2022/07/30 01:13:47;;;;;;;;;;;21.90;46.90;;;;;;492109;240;1091;-50
2022/07/30 01:15:48;;;;;;;;;;;21.90;46.90;;;;;;492081;240;1158;-50
2022/07/30 01:17:49;;;;;;;;;;;21.90;46.90;;;;;;491890;240;1007;-50
2022/07/30 01:19:51;;;;;;;;;;;21.90;46.90;;;;;;491809;240;2192;-50
2022/07/30 01:21:53;;;;;;;;;;;21.90;47.00;;;;;;491573;240;1108;-50
2022/07/30 01:23:54;;;;;;;;;;;21.90;47.00;;;;;;491771;240;1062;-50
2022/07/30 01:25:55;;;;;;;;;;;21.90;47.10;;;;;;492069;240;1118;-50
2022/07/30 01:27:57;;;;;;;;;;;21.90;47.00;;;;;;491657;240;1161;-50
2022/07/30 01:29:58;;;;;;;;;;;21.90;47.00;;;;;;491994;240;1088;-50
2022/07/30 01:31:59;;;;;;;;;;;21.90;47.00;;;;;;492047;240;1175;-55
2022/07/30 01:34:01;;;;;;;;;;;21.90;47.00;;;;;;492040;240;1219;-50
2022/07/30 01:36:02;;;;;;;;;;;21.90;47.00;;;;;;491804;240;1332;-50
2022/07/30 01:38:03;;;;;;;;;;;21.90;47.00;;;;;;492016;240;1158;-50
2022/07/30 01:40:05;;;;;;;;;;;21.90;47.00;;;;;;491610;240;2164;-50
2022/07/30 01:42:07;;;;;;;;;;;21.90;47.00;;;;;;491848;240;1320;-50
2022/07/30 01:44:07;;;;;;;;;;;21.90;47.10;;;;;;491867;240;2315;-50
2022/07/30 01:46:09;;;;;;;;;;;21.90;47.00;;;;;;491579;240;1341;-50
2022/07/30 01:48:10;;;;;;;;;;;21.90;47.10;;;;;;491918;240;1222;-50
2022/07/30 01:50:13;;;;;;;;;;;21.90;47.10;;;;;;491587;240;1410;-50
2022/07/30 01:52:14;;;;;;;;;;;21.90;47.10;;;;;;492007;240;1094;-50
2022/07/30 01:54:15;;;;;;;;;;;21.90;47.10;;;;;;491644;240;1208;-50
2022/07/30 01:56:16;;;;;;;;;;;21.90;47.10;;;;;;491748;240;1179;-50
2022/07/30 01:58:18;;;;;;;;;;;21.90;47.10;;;;;;491580;240;1218;-50
2022/07/30 02:00:20;;;;;;;;;;;21.90;47.10;;;;;;491689;240;2406;-50
2022/07/30 02:02:21;;;;;;;;;;;21.90;47.10;;;;;;491695;240;1186;-50
2022/07/30 02:04:22;;;;;;;;;;;21.90;47.10;;;;;;491595;240;1169;-50
2022/07/30 02:06:24;;;;;;;;;;;21.90;47.20;;;;;;491595;240;1216;-50
2022/07/30 02:08:25;;;;;;;;;;;21.90;47.20;;;;;;491567;240;1188;-50
2022/07/30 02:10:26;;;;;;;;;;;21.90;47.20;;;;;;491631;240;1288;-50
2022/07/30 02:12:28;;;;;;;;;;;21.90;47.20;;;;;;491705;240;1134;-50
2022/07/30 02:14:29;;;;;;;;;;;21.90;47.20;;;;;;492096;240;1071;-51
2022/07/30 02:16:30;;;;;;;;;;;21.90;47.20;;;;;;491614;240;1371;-50
2022/07/30 02:18:32;;;;;;;;;;;21.90;47.20;;;;;;491870;240;2175;-50
2022/07/30 02:20:33;;;;;;;;;;;21.90;47.30;;;;;;492097;240;1218;-50
2022/07/30 02:22:34;;;;;;;;;;;21.90;47.20;;;;;;491677;240;1248;-50
2022/07/30 02:24:36;;;;;;;;;;;21.90;47.30;;;;;;491623;240;1147;-50
2022/07/30 02:26:37;;;;;;;;;;;21.90;47.30;;;;;;492085;240;1230;-50
2022/07/30 02:28:38;;;;;;;;;;;21.90;47.30;;;;;;491648;240;1281;-50
2022/07/30 02:30:40;;;;;;;;;;;21.90;47.20;;;;;;491681;240;1317;-50
2022/07/30 02:32:41;;;;;;;;;;;21.90;47.30;;;;;;491661;240;1177;-50
2022/07/30 02:34:42;;;;;;;;;;;21.90;47.30;;;;;;492074;240;1171;-50
2022/07/30 02:36:44;;;;;;;;;;;21.90;47.30;;;;;;491760;240;1211;-50
2022/07/30 02:38:45;;;;;;;;;;;21.90;47.40;;;;;;491554;240;2117;-50
2022/07/30 02:40:46;;;;;;;;;;;21.90;47.40;;;;;;491542;240;1199;-50
2022/07/30 02:42:48;;;;;;;;;;;21.90;47.40;;;;;;491784;240;1244;-50
2022/07/30 02:44:49;;;;;;;;;;;21.90;47.40;;;;;;491601;240;1348;-50
2022/07/30 02:46:50;;;;;;;;;;;21.90;47.30;;;;;;492049;240;1298;-50
2022/07/30 02:48:52;;;;;;;;;;;21.90;47.30;;;;;;491917;240;1172;-50
2022/07/30 02:50:53;;;;;;;;;;;21.90;47.30;;;;;;492057;240;1336;-50
2022/07/30 02:52:54;;;;;;;;;;;21.90;47.30;;;;;;491954;240;1191;-50
2022/07/30 02:54:56;;;;;;;;;;;21.90;47.40;;;;;;491958;240;1354;-50
2022/07/30 02:56:57;;;;;;;;;;;21.90;47.40;;;;;;491779;240;1203;-50
2022/07/30 02:58:58;;;;;;;;;;;21.90;47.30;;;;;;491541;240;2140;-50
2022/07/30 03:01:00;;;;;;;;;;;21.90;47.40;;;;;;491887;240;1261;-50
2022/07/30 03:03:01;;;;;;;;;;;21.90;47.40;;;;;;491602;240;1214;-50
2022/07/30 03:05:03;;;;;;;;;;;21.90;47.40;;;;;;491847;240;1286;-50
2022/07/30 03:07:04;;;;;;;;;;;21.90;47.40;;;;;;491498;240;1210;-50
2022/07/30 03:09:05;;;;;;;;;;;21.90;47.40;;;;;;491598;240;1297;-50
2022/07/30 03:11:06;;;;;;;;;;;21.90;47.40;;;;;;491580;240;1180;-50
2022/07/30 03:13:08;;;;;;;;;;;21.90;47.40;;;;;;491638;240;1591;-49
2022/07/30 03:15:09;;;;;;;;;;;21.80;47.40;;;;;;491945;240;1289;-50
2022/07/30 03:17:11;;;;;;;;;;;21.90;47.50;;;;;;491765;240;1133;-50
2022/07/30 03:19:12;;;;;;;;;;;21.90;47.50;;;;;;492073;240;2216;-50
2022/07/30 03:21:13;;;;;;;;;;;21.90;47.50;;;;;;491918;240;1253;-50
2022/07/30 03:23:15;;;;;;;;;;;21.90;47.50;;;;;;491557;240;1194;-50
2022/07/30 03:25:16;;;;;;;;;;;21.90;47.40;;;;;;491935;240;1305;-50
2022/07/30 03:27:17;;;;;;;;;;;21.90;47.40;;;;;;491611;240;1127;-50
2022/07/30 03:29:19;;;;;;;;;;;21.90;47.40;;;;;;491604;240;1160;-50
2022/07/30 03:31:20;;;;;;;;;;;21.80;47.40;;;;;;492087;240;1034;-50
2022/07/30 03:33:21;;;;;;;;;;;21.90;47.50;;;;;;491929;240;1212;-50
2022/07/30 03:35:23;;;;;;;;;;;21.90;47.50;;;;;;492078;240;1151;-50
2022/07/30 03:37:25;;;;;;;;;;;21.90;47.40;;;;;;491585;240;1186;-50
2022/07/30 03:39:26;;;;;;;;;;;21.90;47.50;;;;;;491658;240;2144;-50
2022/07/30 03:41:27;;;;;;;;;;;21.90;47.40;;;;;;491585;240;1237;-50
2022/07/30 03:43:29;;;;;;;;;;;21.90;47.50;;;;;;491532;240;1235;-50
2022/07/30 03:45:30;;;;;;;;;;;21.90;47.50;;;;;;491598;240;1194;-49
2022/07/30 03:47:31;;;;;;;;;;;21.90;47.40;;;;;;491833;240;1197;-50
2022/07/30 03:49:33;;;;;;;;;;;21.90;47.50;;;;;;491688;240;1176;-50
2022/07/30 03:51:34;;;;;;;;;;;21.90;47.50;;;;;;491600;240;1212;-50
2022/07/30 03:53:35;;;;;;;;;;;21.90;47.40;;;;;;491777;240;1088;-50
2022/07/30 03:55:37;;;;;;;;;;;21.90;47.40;;;;;;491988;240;1192;-50
2022/07/30 03:57:38;;;;;;;;;;;21.90;47.40;;;;;;491961;240;1029;-50
2022/07/30 03:59:39;;;;;;;;;;;21.90;47.50;;;;;;491608;240;2149;-50
2022/07/30 04:01:41;;;;;;;;;;;21.90;47.50;;;;;;491614;240;1305;-51
2022/07/30 04:03:42;;;;;;;;;;;21.90;47.50;;;;;;492055;240;1270;-50
2022/07/30 04:05:43;;;;;;;;;;;21.90;47.50;;;;;;492001;240;1266;-50
2022/07/30 04:07:45;;;;;;;;;;;21.90;47.50;;;;;;491760;240;1212;-50
2022/07/30 04:09:46;;;;;;;;;;;21.90;47.60;;;;;;491903;240;1218;-50
2022/07/30 04:11:47;;;;;;;;;;;21.90;47.50;;;;;;491667;240;1163;-50
2022/07/30 04:13:49;;;;;;;;;;;21.90;47.60;;;;;;491524;240;1218;-50
2022/07/30 04:15:50;;;;;;;;;;;21.90;47.50;;;;;;491674;240;1083;-50
2022/07/30 04:17:51;;;;;;;;;;;21.90;47.50;;;;;;491748;240;1282;-50
2022/07/30 04:19:53;;;;;;;;;;;21.90;47.50;;;;;;491607;240;2192;-50
2022/07/30 04:21:54;;;;;;;;;;;21.90;47.50;;;;;;491884;240;1174;-50
2022/07/30 04:23:55;;;;;;;;;;;21.90;47.50;;;;;;492051;240;1217;-50
2022/07/30 04:25:57;;;;;;;;;;;21.90;47.60;;;;;;492022;240;1253;-50
2022/07/30 04:27:58;;;;;;;;;;;21.90;47.60;;;;;;491584;240;1258;-50
2022/07/30 04:29:59;;;;;;;;;;;21.90;47.60;;;;;;491593;240;1268;-50
2022/07/30 04:32:01;;;;;;;;;;;21.90;47.60;;;;;;491581;240;1218;-50
2022/07/30 04:34:02;;;;;;;;;;;21.90;47.60;;;;;;491615;240;1289;-50
2022/07/30 04:36:03;;;;;;;;;;;21.90;47.60;;;;;;491854;240;1181;-50
2022/07/30 04:38:05;;;;;;;;;;;21.90;47.60;;;;;;491913;240;1197;-50
2022/07/30 04:40:06;;;;;;;;;;;21.90;47.60;;;;;;491919;240;2121;-50
2022/07/30 04:42:07;;;;;;;;;;;21.90;47.70;;;;;;492086;240;1048;-50
2022/07/30 04:44:09;;;;;;;;;;;21.90;47.60;;;;;;491889;240;1171;-50
2022/07/30 04:46:10;;;;;;;;;;;21.90;47.60;;;;;;492035;240;1335;-50
2022/07/30 04:48:11;;;;;;;;;;;21.90;47.70;;;;;;491551;240;1055;-50
2022/07/30 04:50:13;;;;;;;;;;;21.90;47.70;;;;;;492040;240;1110;-50
2022/07/30 04:52:14;;;;;;;;;;;21.90;47.60;;;;;;491976;240;1055;-52
2022/07/30 04:54:15;;;;;;;;;;;21.90;47.60;;;;;;491834;240;1087;-50
2022/07/30 04:56:17;;;;;;;;;;;21.90;47.70;;;;;;491571;240;1354;-51
2022/07/30 04:58:18;;;;;;;;;;;21.90;47.70;;;;;;491831;240;1197;-50
2022/07/30 05:00:20;;;;;;;;;;;21.90;47.60;;;;;;491584;240;2187;-50
2022/07/30 05:02:21;;;;;;;;;;;21.90;47.70;;;;;;491563;240;2148;-50
2022/07/30 05:04:22;;;;;;;;;;;21.90;47.60;;;;;;491952;240;1231;-50
2022/07/30 05:06:24;;;;;;;;;;;21.90;47.60;;;;;;491788;240;1338;-50
2022/07/30 05:08:25;;;;;;;;;;;21.90;47.60;;;;;;491537;240;1182;-50
2022/07/30 05:10:26;;;;;;;;;;;21.90;47.60;;;;;;491882;240;1156;-50
2022/07/30 05:12:28;;;;;;;;;;;21.90;47.60;;;;;;492063;240;1216;-50
2022/07/30 05:14:29;;;;;;;;;;;21.90;47.70;;;;;;491908;240;1184;-50
2022/07/30 05:16:32;;;;;;;;;;;21.90;47.70;;;;;;492081;240;1367;-50
2022/07/30 05:18:32;;;;;;;;;;;21.90;47.70;;;;;;491767;240;2319;-50
2022/07/30 05:20:33;;;;;;;;;;;21.90;47.70;;;;;;491626;240;2124;-50
2022/07/30 05:22:34;;;;;;;;;;;21.90;47.70;;;;;;491742;240;1355;-50
2022/07/30 05:24:36;;;;;;;;;;;21.90;47.70;;;;;;492048;240;1079;-50
2022/07/30 05:26:37;;;;;;;;;;;21.90;47.70;;;;;;491620;240;1250;-50
2022/07/30 05:28:38;;;;;;;;;;;21.90;47.70;;;;;;492059;240;1439;-50
2022/07/30 05:30:40;;;;;;;;;;;21.90;47.70;;;;;;491648;240;1193;-50
2022/07/30 05:32:42;;;;;;;;;;;21.90;47.70;;;;;;491817;240;1211;-50
2022/07/30 05:34:42;;;;;;;;;;;21.90;47.70;;;;;;491771;240;2261;-50
2022/07/30 05:36:44;;;;;;;;;;;21.90;47.70;;;;;;491674;240;1259;-50
2022/07/30 05:38:46;;;;;;;;;;;21.90;47.70;;;;;;491598;240;1073;-50
2022/07/30 05:40:47;;;;;;;;;;;21.90;47.70;;;;;;492032;240;2109;-50
2022/07/30 05:42:49;;;;;;;;;;;21.90;47.70;;;;;;491779;240;1043;-50
2022/07/30 05:44:50;;;;;;;;;;;21.90;47.70;;;;;;491929;240;1161;-50
2022/07/30 05:46:51;;;;;;;;;;;21.90;47.70;;;;;;491771;240;1346;-50
2022/07/30 05:48:53;;;;;;;;;;;21.90;47.80;;;;;;491731;240;1031;-50
2022/07/30 05:50:54;;;;;;;;;;;21.90;47.70;;;;;;491668;240;1064;-50
2022/07/30 05:52:57;;;;;;;;;;;21.90;47.80;;;;;;491569;240;1209;-50
2022/07/30 05:54:57;;;;;;;;;;;21.90;47.70;;;;;;491605;240;1373;-50
2022/07/30 05:56:58;;;;;;;;;;;21.90;47.70;;;;;;492027;240;1057;-50
2022/07/30 05:58:59;;;;;;;;;;;21.90;47.70;;;;;;492025;240;1126;-50
2022/07/30 06:01:01;;;;;;;;;;;21.90;47.70;;;;;;491589;240;2166;-50
2022/07/30 06:03:02;;;;;;;;;;;21.90;47.80;;;;;;492008;240;1203;-50
2022/07/30 06:05:03;;;;;;;;;;;21.90;47.80;;;;;;491947;240;1267;-50
2022/07/30 06:07:05;;;;;;;;;;;21.90;47.70;;;;;;491696;240;1173;-50
2022/07/30 06:09:06;;;;;;;;;;;21.90;47.80;;;;;;491976;240;1132;-50
2022/07/30 06:11:08;;;;;;;;;;;21.90;47.80;;;;;;491576;240;1281;-50
2022/07/30 06:13:09;;;;;;;;;;;21.90;47.80;;;;;;491627;240;1230;-50
2022/07/30 06:15:11;;;;;;;;;;;21.80;47.80;;;;;;491535;240;1593;-50
2022/07/30 06:17:12;;;;;;;;;;;21.90;47.80;;;;;;491770;240;1369;-50
2022/07/30 06:19:13;;;;;;;;;;;21.90;47.70;;;;;;491569;240;1074;-50
2022/07/30 06:21:15;;;;;;;;;;;21.90;47.80;;;;;;491558;240;2192;-50
2022/07/30 06:23:16;;;;;;;;;;;21.90;47.80;;;;;;491710;240;1222;-50
2022/07/30 06:25:17;;;;;;;;;;;21.90;47.80;;;;;;491753;240;1182;-50
2022/07/30 06:27:19;;;;;;;;;;;21.90;47.80;;;;;;491634;240;1179;-50
2022/07/30 06:29:20;;;;;;;;;;;21.90;47.80;;;;;;491933;240;1230;-50
2022/07/30 06:31:21;;;;;;;;;;;21.80;47.80;;;;;;491671;240;1266;-50
2022/07/30 06:33:23;;;;;;;;;;;21.90;47.80;;;;;;492080;240;1035;-51
2022/07/30 06:35:24;;;;;;;;;;;21.80;47.80;;;;;;491616;240;1066;-50
2022/07/30 06:37:25;;;;;;;;;;;21.90;47.80;;;;;;491845;240;1077;-50
2022/07/30 06:39:26;;;;;;;;;;;21.90;47.80;;;;;;491786;240;1013;-50
2022/07/30 06:41:28;;;;;;;;;;;21.90;47.80;;;;;;491618;240;2183;-50
2022/07/30 06:43:29;;;;;;;;;;;21.90;47.90;;;;;;491814;240;1112;-49
2022/07/30 06:45:31;;;;;;;;;;;21.90;47.80;;;;;;491824;240;1304;-50
2022/07/30 06:47:33;;;;;;;;;;;21.90;47.80;;;;;;491868;240;1053;-50
2022/07/30 06:49:33;;;;;;;;;;;21.90;47.80;;;;;;491599;240;2196;-50
2022/07/30 06:51:35;;;;;;;;;;;21.90;47.80;;;;;;491985;240;1077;-50
2022/07/30 06:53:36;;;;;;;;;;;21.80;47.80;;;;;;491890;240;1184;-50
2022/07/30 06:55:37;;;;;;;;;;;21.90;47.90;;;;;;491970;240;1060;-50
2022/07/30 06:57:39;;;;;;;;;;;21.90;47.80;;;;;;491706;240;1010;-50
2022/07/30 06:59:40;;;;;;;;;;;21.90;47.80;;;;;;491771;240;1061;-51
2022/07/30 07:01:41;;;;;;;;;;;21.80;47.80;;;;;;491552;240;2156;-50
2022/07/30 07:03:43;;;;;;;;;;;21.90;47.80;;;;;;491785;240;1038;-50
2022/07/30 07:05:44;;;;;;;;;;;21.90;47.80;;;;;;491593;240;1200;-50
2022/07/30 07:07:45;;;;;;;;;;;21.90;47.80;;;;;;491574;240;1063;-51
2022/07/30 07:09:47;;;;;;;;;;;21.90;47.80;;;;;;491762;240;1036;-50
2022/07/30 07:11:48;;;;;;;;;;;21.90;47.90;;;;;;491605;240;1290;-50
2022/07/30 07:13:49;;;;;;;;;;;21.90;47.90;;;;;;491628;240;1230;-50
2022/07/30 07:15:51;;;;;;;;;;;21.80;47.80;;;;;;491619;240;1278;-50
2022/07/30 07:17:52;;;;;;;;;;;21.90;47.90;;;;;;491814;240;1261;-50
2022/07/30 07:19:53;;;;;;;;;;;21.90;47.90;;;;;;491871;240;1211;-49
2022/07/30 07:21:55;;;;;;;;;;;21.90;47.80;;;;;;491938;240;2116;-50
2022/07/30 07:23:59;;;;;;;;;;;21.90;47.90;;;;;;491886;240;1204;-50
2022/07/30 07:25:57;;;;;;;;;;;21.90;47.80;;;;;;491623;240;2198;-50
2022/07/30 07:27:59;;;;;;;;;;;21.90;47.90;;;;;;491790;240;1208;-50
2022/07/30 07:30:00;;;;;;;;;;;21.90;47.80;;;;;;491952;240;1204;-50
2022/07/30 07:32:01;;;;;;;;;;;21.90;47.90;;;;;;491504;240;1360;-50
2022/07/30 07:34:03;;;;;;;;;;;21.90;47.90;;;;;;491615;240;1139;-50
2022/07/30 07:36:04;;;;;;;;;;;21.90;47.90;;;;;;491609;240;1174;-50
2022/07/30 07:38:05;;;;;;;;;;;21.90;47.80;;;;;;491566;240;1283;-50
2022/07/30 07:40:07;;;;;;;;;;;21.90;47.80;;;;;;491877;240;1169;-50
2022/07/30 07:42:08;;;;;;;;;;;21.90;47.80;;;;;;491887;240;2113;-50
2022/07/30 07:44:09;;;;;;;;;;;21.90;47.90;;;;;;491784;240;1288;-50
2022/07/30 07:46:15;;;;;;;;;;;21.90;47.90;;;;;;491940;240;1186;-50
2022/07/30 07:48:13;;;;;;;;;;;21.90;47.90;;;;;;491932;240;2392;-50
2022/07/30 07:50:14;;;;;;;;;;;21.90;47.90;;;;;;491977;240;1301;-50
2022/07/30 07:52:16;;;;;;;;;;;21.90;47.90;;;;;;491557;240;1092;-50
2022/07/30 07:54:17;;;;;;;;;;;21.90;47.90;;;;;;492092;240;992;-50
2022/07/30 07:56:19;;;;;;;;;;;21.90;47.90;;;;;;492060;240;1046;-50
2022/07/30 07:58:19;;;;;;;;;;;21.90;47.90;;;;;;491547;240;2083;-50
2022/07/30 08:00:21;;;;;;;;;;;21.90;47.90;;;;;;491669;240;1114;-50
2022/07/30 08:02:22;;;;;;;;;;;21.90;47.90;;;;;;491627;240;2101;-50
2022/07/30 08:04:24;;;;;;;;;;;21.90;47.90;;;;;;491751;240;1247;-50
2022/07/30 08:06:25;;;;;;;;;;;21.90;47.90;;;;;;491578;240;1211;-50
2022/07/30 08:08:26;;;;;;;;;;;21.80;47.90;;;;;;491694;240;1146;-50
2022/07/30 08:10:27;;;;;;;;;;;21.90;47.90;;;;;;491864;240;1278;-50
2022/07/30 08:12:29;;;;;;;;;;;21.80;47.80;;;;;;491715;240;1249;-50
2022/07/30 08:14:30;;;;;;;;;;;21.90;47.90;;;;;;491530;240;1242;-51
2022/07/30 08:16:31;;;;;;;;;;;21.90;47.90;;;;;;491694;240;1333;-50
2022/07/30 08:18:33;;;;;;;;;;;21.90;47.90;;;;;;491777;240;1193;-50
2022/07/30 08:20:34;;;;;;;;;;;21.90;47.90;;;;;;491825;240;1361;-50
2022/07/30 08:22:36;;;;;;;;;;;21.90;47.90;;;;;;491508;240;2170;-50
2022/07/30 08:24:37;;;;;;;;;;;21.90;47.90;;;;;;491934;240;1280;-50
2022/07/30 08:26:38;;;;;;;;;;;21.90;47.90;;;;;;491527;240;1260;-50
2022/07/30 08:28:41;;;;;;;;;;;21.90;47.90;;;;;;491650;240;1421;-50
2022/07/30 08:30:41;;;;;;;;;;;21.90;47.90;;;;;;491559;240;2406;-50
2022/07/30 08:32:42;;;;;;;;;;;21.80;47.90;;;;;;491583;240;1404;-50
2022/07/30 08:34:44;;;;;;;;;;;21.90;47.90;;;;;;491870;240;1229;-49
2022/07/30 08:36:45;;;;;;;;;;;21.90;47.80;;;;;;491682;240;1104;-50
2022/07/30 08:38:46;;;;;;;;;;;21.90;47.90;;;;;;492043;240;1109;-50
2022/07/30 08:40:48;;;;;;;;;;;21.80;47.90;;;;;;492025;240;2118;-51
2022/07/30 08:42:49;;;;;;;;;;;21.90;48.00;;;;;;491806;240;1215;-51
2022/07/30 08:44:50;;;;;;;;;;;21.90;47.90;;;;;;492001;240;1325;-50
2022/07/30 08:46:55;;;;;;;;;;;21.90;47.90;;;;;;491591;240;1180;-50
2022/07/30 08:48:53;;;;;;;;;;;21.80;47.90;;;;;;491866;240;1802;-50
2022/07/30 08:50:55;;;;;;;;;;;21.80;47.90;;;;;;491982;240;1191;-50
2022/07/30 08:52:56;;;;;;;;;;;21.90;48.00;;;;;;491941;240;1234;-50
2022/07/30 08:54:57;;;;;;;;;;;21.80;47.90;;;;;;492020;240;1203;-50
2022/07/30 08:56:59;;;;;;;;;;;21.90;47.90;;;;;;491877;240;1223;-50
2022/07/30 08:59:00;;;;;;;;;;;21.80;47.90;;;;;;491824;240;1280;-50
2022/07/30 09:01:01;;;;;;;;;;;21.90;47.90;;;;;;491762;240;2185;-50
2022/07/30 09:03:02;;;;;;;;;;;21.90;47.90;;;;;;491534;240;1203;-50
2022/07/30 09:05:04;;;;;;;;;;;21.80;47.90;;;;;;491940;240;1198;-50
2022/07/30 09:07:05;;;;;;;;;;;21.80;47.90;;;;;;491903;240;1145;-50
2022/07/30 09:09:07;;;;;;;;;;;21.80;47.90;;;;;;491616;240;1298;-50
2022/07/30 09:11:08;;;;;;;;;;;21.90;47.90;;;;;;491595;240;1265;-50
2022/07/30 09:13:09;;;;;;;;;;;21.90;48.00;;;;;;491566;240;1250;-50
2022/07/30 09:15:11;;;;;;;;;;;21.80;47.90;;;;;;491661;240;1214;-50
2022/07/30 09:17:12;;;;;;;;;;;21.90;47.90;;;;;;491856;240;1127;-50
2022/07/30 09:19:13;;;;;;;;;;;21.90;48.00;;;;;;491780;240;1124;-50
2022/07/30 09:21:15;;;;;;;;;;;21.90;47.90;;;;;;491994;240;2188;-50
2022/07/30 09:23:16;;;;;;;;;;;21.80;47.90;;;;;;491796;240;1177;-50
2022/07/30 09:25:17;;;;;;;;;;;21.80;47.90;;;;;;491838;240;1213;-50
2022/07/30 09:27:19;;;;;;;;;;;21.90;48.00;;;;;;491596;240;1177;-50
2022/07/30 09:29:20;;;;;;;;;;;21.90;47.90;;;;;;492033;240;1235;-51
2022/07/30 09:31:22;;;;;;;;;;;21.80;47.90;;;;;;491921;240;1275;-49
2022/07/30 09:33:23;;;;;;;;;;;21.90;47.90;;;;;;491646;240;1605;-50
2022/07/30 09:35:24;;;;;;;;;;;21.90;47.90;;;;;;492014;240;1209;-49
2022/07/30 09:37:25;;;;;;;;;;;21.90;47.90;;;;;;491611;240;1205;-50
2022/07/30 09:39:27;;;;;;;;;;;21.90;48.00;;;;;;491556;240;1264;-50
2022/07/30 09:41:28;;;;;;;;;;;21.80;48.00;;;;;;491883;240;2180;-50
2022/07/30 09:43:30;;;;;;;;;;;21.80;47.90;;;;;;491533;240;1171;-50
2022/07/30 09:45:31;;;;;;;;;;;21.80;47.90;;;;;;491827;240;1211;-50
2022/07/30 09:47:32;;;;;;;;;;;21.80;47.90;;;;;;491887;240;1149;-50
2022/07/30 09:49:33;;;;;;;;;;;21.80;47.90;;;;;;492045;240;1133;-50
2022/07/30 09:51:35;;;;;;;;;;;21.80;47.90;;;;;;491911;240;1128;-50
2022/07/30 09:53:36;;;;;;;;;;;21.90;47.90;;;;;;491943;240;1089;-50
2022/07/30 09:55:37;;;;;;;;;;;21.80;47.90;;;;;;491658;240;1392;-50
2022/07/30 09:57:39;;;;;;;;;;;21.90;47.90;;;;;;492061;240;1257;-50
2022/07/30 09:59:40;;;;;;;;;;;21.90;47.90;;;;;;492057;240;1026;-50
2022/07/30 10:01:41;;;;;;;;;;;21.80;47.90;;;;;;491996;240;2189;-50
2022/07/30 10:03:43;;;;;;;;;;;21.90;47.90;;;;;;491638;240;1571;-50
2022/07/30 10:05:44;;;;;;;;;;;21.80;47.90;;;;;;491837;240;1848;-50
2022/07/30 10:07:45;;;;;;;;;;;21.90;47.90;;;;;;491490;240;1134;-50
2022/07/30 10:09:47;;;;;;;;;;;21.90;47.90;;;;;;492033;240;1104;-50
2022/07/30 10:11:48;;;;;;;;;;;21.90;47.90;;;;;;491503;240;1189;-50
2022/07/30 10:13:49;;;;;;;;;;;21.90;47.90;;;;;;491972;240;1243;-50
2022/07/30 10:15:51;;;;;;;;;;;21.90;47.90;;;;;;491628;240;1313;-50
2022/07/30 10:17:52;;;;;;;;;;;21.90;47.80;;;;;;491600;240;1382;-50
2022/07/30 10:19:54;;;;;;;;;;;21.90;47.80;;;;;;491719;240;1210;-49
2022/07/30 10:21:56;;;;;;;;;;;21.90;47.90;;;;;;491687;240;2188;-50
2022/07/30 10:23:56;;;;;;;;;;;21.90;47.90;;;;;;491659;240;1806;-50
2022/07/30 10:25:58;;;;;;;;;;;21.90;47.90;;;;;;492044;240;1408;-50
2022/07/30 10:27:59;;;;;;;;;;;21.90;47.90;;;;;;492072;240;1075;-50
2022/07/30 10:30:01;;;;;;;;;;;21.90;47.90;;;;;;491907;240;1214;-52
2022/07/30 10:32:02;;;;;;;;;;;21.90;47.90;;;;;;491584;240;1219;-50
2022/07/30 10:34:03;;;;;;;;;;;21.90;48.00;;;;;;491603;240;1262;-50
2022/07/30 10:36:05;;;;;;;;;;;21.90;48.00;;;;;;491855;240;1058;-50
2022/07/30 10:38:06;;;;;;;;;;;21.90;48.00;;;;;;491532;240;1136;-50
2022/07/30 10:40:07;;;;;;;;;;;21.90;48.00;;;;;;491975;240;1059;-50
2022/07/30 10:42:09;;;;;;;;;;;21.90;47.90;;;;;;491563;240;2190;-50
2022/07/30 10:44:10;;;;;;;;;;;21.90;48.00;;;;;;491602;240;1091;-50
2022/07/30 10:46:11;;;;;;;;;;;21.90;48.00;;;;;;492101;240;1140;-50
2022/07/30 10:48:13;;;;;;;;;;;21.80;47.90;;;;;;491568;240;1153;-50
2022/07/30 10:50:14;;;;;;;;;;;21.90;48.00;;;;;;492037;240;1103;-50
2022/07/30 10:52:15;;;;;;;;;;;21.90;48.00;;;;;;491684;240;1049;-49
2022/07/30 10:54:17;;;;;;;;;;;21.80;47.90;;;;;;491615;240;1168;-50
2022/07/30 10:56:18;;;;;;;;;;;21.80;47.90;;;;;;491727;240;1020;-50
2022/07/30 10:58:19;;;;;;;;;;;21.80;48.00;;;;;;491612;240;1023;-51
2022/07/30 11:00:21;;;;;;;;;;;21.80;48.00;;;;;;491861;240;1094;-50
2022/07/30 11:02:22;;;;;;;;;;;21.90;48.00;;;;;;492072;240;2105;-50
2022/07/30 11:04:23;;;;;;;;;;;21.80;48.00;;;;;;491703;240;1304;-50
2022/07/30 11:06:25;;;;;;;;;;;21.80;48.00;;;;;;491624;240;1155;-50
2022/07/30 11:08:26;;;;;;;;;;;21.90;48.10;;;;;;491863;240;1059;-50
2022/07/30 11:10:27;;;;;;;;;;;21.80;48.00;;;;;;492012;240;1036;-50
2022/07/30 11:12:29;;;;;;;;;;;21.90;48.00;;;;;;491582;240;1199;-50
2022/07/30 11:14:30;;;;;;;;;;;21.90;48.00;;;;;;492045;240;995;-50
2022/07/30 11:16:31;;;;;;;;;;;21.90;48.00;;;;;;491608;240;1043;-50
2022/07/30 11:18:33;;;;;;;;;;;21.90;47.90;;;;;;491556;240;1144;-50
2022/07/30 11:20:34;;;;;;;;;;;21.80;47.90;;;;;;491707;240;1096;-50
2022/07/30 11:22:37;;;;;;;;;;;21.90;47.90;;;;;;491870;240;2191;-50
2022/07/30 11:24:37;;;;;;;;;;;21.90;48.00;;;;;;491605;240;2549;-49
2022/07/30 11:26:38;;;;;;;;;;;21.80;48.00;;;;;;491559;240;1020;-51
2022/07/30 11:28:40;;;;;;;;;;;21.90;48.00;;;;;;491794;240;1031;-50
2022/07/30 11:30:41;;;;;;;;;;;21.90;47.90;;;;;;492018;240;1066;-50
2022/07/30 11:32:42;;;;;;;;;;;21.90;47.90;;;;;;491741;240;1248;-50
2022/07/30 11:34:43;;;;;;;;;;;21.90;47.90;;;;;;491740;240;1202;-50
2022/07/30 11:36:45;;;;;;;;;;;21.90;47.90;;;;;;491531;240;1077;-50
2022/07/30 11:38:46;;;;;;;;;;;21.90;48.00;;;;;;491646;240;1054;-50
2022/07/30 11:40:48;;;;;;;;;;;21.90;48.00;;;;;;492079;240;1244;-50
2022/07/30 11:42:49;;;;;;;;;;;21.90;48.00;;;;;;491658;240;2173;-50
2022/07/30 11:44:50;;;;;;;;;;;21.90;48.00;;;;;;491793;240;1074;-50
2022/07/30 11:46:52;;;;;;;;;;;21.90;48.00;;;;;;492085;240;1091;-50
2022/07/30 11:48:53;;;;;;;;;;;21.90;48.00;;;;;;491732;240;1133;-50
2022/07/30 11:50:54;;;;;;;;;;;21.80;48.00;;;;;;491862;240;1381;-50
2022/07/30 11:52:56;;;;;;;;;;;21.90;48.00;;;;;;491539;240;1181;-50
2022/07/30 11:54:57;;;;;;;;;;;21.90;48.00;;;;;;492024;240;1068;-50
2022/07/30 11:56:58;;;;;;;;;;;21.90;48.00;;;;;;491751;240;1463;-50